Terminal Aerodrome Forecast
Issued by NWS Omaha/Valley, NE

Home | Current Version | Previous Version | Text Only | Print | Product List | Glossary Off
Versions: 1 2 3 4 5 6 7 8 9 10 11 12 13 14 15 16 17 18 19 20 21 22 23 24 25 26 27 28

037
FTUS43 KOAX 252320
TAFOFK
TAF
KOFK 252320Z 2600/2624 17008KT P6SM SCT150
     FM260700 VRB03KT P6SM BKN080
     FM261200 32010KT P6SM SCT140=

USA.gov is the U.S. government's official web portal to all federal, state and local government web resources and services.